createdAt,value
2022-08-11T00:03:25.524Z,100688.13
2022-08-11T00:04:25.256Z,100689.22
2022-08-11T00:05:10.613Z,100683.75
2022-08-11T00:05:59.977Z,100686.50
2022-08-11T00:06:42.013Z,100683.75
2022-08-11T00:07:28.708Z,100686.50
2022-08-11T00:08:29.777Z,100683.22
2022-08-11T00:09:18.956Z,100685.97
2022-08-11T00:10:04.930Z,100684.03
2022-08-11T00:10:53.530Z,100685.16
2022-08-11T00:11:39.644Z,100687.88
2022-08-11T00:12:27.576Z,100685.97
2022-08-11T00:14:20.321Z,100689.78
2022-08-11T00:15:03.583Z,100687.06
2022-08-11T00:15:54.481Z,100686.25
2022-08-11T00:16:35.761Z,100692.53
2022-08-11T00:17:23.749Z,100690.88
2022-08-11T00:18:12.464Z,100690.88
2022-08-11T00:18:58.576Z,100684.59
2022-08-11T00:20:12.137Z,100692.81
2022-08-11T00:20:44.495Z,100684.59
2022-08-11T00:22:01.923Z,100689.25
2022-08-11T00:22:29.144Z,100684.88
2022-08-11T00:23:14.314Z,100687.63
2022-08-11T00:24:01.411Z,100686.81
2022-08-11T00:24:54.867Z,100690.34
2022-08-11T00:25:41.385Z,100682.16
2022-08-11T00:26:30.582Z,100687.63
2022-08-11T00:27:22.850Z,100687.63
2022-08-11T00:28:27.128Z,100683.25
2022-08-11T00:29:16.106Z,100687.91
2022-08-11T00:30:02.555Z,100690.63
2022-08-11T00:30:50.846Z,100689.00
2022-08-11T00:31:42.369Z,100690.91
2022-08-11T00:32:28.263Z,100687.09
2022-08-11T00:33:13.837Z,100686.25
2022-08-11T00:34:02.301Z,100685.44
2022-08-11T00:34:52.155Z,100689.00
2022-08-11T00:35:57.675Z,100684.63
2022-08-11T00:36:42.484Z,100684.63
2022-08-11T00:37:42.687Z,100681.09
2022-08-11T00:38:29.628Z,100681.09
2022-08-11T00:39:15.935Z,100689.28
2022-08-11T00:40:04.949Z,100685.72
2022-08-11T00:40:54.051Z,100684.09
2022-08-11T00:41:42.305Z,100687.66
2022-08-11T00:42:35.071Z,100688.75
2022-08-11T00:43:21.456Z,100687.91
2022-08-11T00:44:09.729Z,100677.81
2022-08-11T00:44:59.108Z,100683.28
2022-08-11T00:45:44.261Z,100681.63
2022-08-11T00:46:47.149Z,100678.91
2022-08-11T00:47:30.215Z,100683.28
2022-08-11T00:48:17.393Z,100681.63
2022-08-11T00:49:05.951Z,100681.63
2022-08-11T00:49:53.649Z,100680.81
2022-08-11T00:50:41.844Z,100681.63
2022-08-11T00:52:02.038Z,100679.72
2022-08-11T00:52:29.755Z,100681.63
2022-08-11T00:53:25.860Z,100679.19
2022-08-11T00:54:15.738Z,100681.91
2022-08-11T00:55:01.606Z,100677.28
2022-08-11T00:55:55.938Z,100672.91
2022-08-11T00:56:40.580Z,100680.00
2022-08-11T00:57:36.770Z,100673.72
2022-08-11T00:58:21.750Z,100674.81
2022-08-11T00:59:13.282Z,100679.19
2022-08-11T01:00:09.491Z,100683.00
2022-08-11T01:00:54.697Z,100683.00
2022-08-11T01:01:45.061Z,100684.13
2022-08-11T01:02:29.136Z,100681.09
2022-08-11T01:03:13.776Z,100685.75
2022-08-11T01:04:04.421Z,100687.66
2022-08-11T01:04:51.186Z,100686.56
2022-08-11T01:05:40.121Z,100683.00
2022-08-11T01:06:30.852Z,100675.91
2022-08-11T01:08:01.582Z,100677.56
2022-08-11T01:08:25.751Z,100684.94
2022-08-11T01:09:22.212Z,100682.19
2022-08-11T01:10:07.477Z,100685.75
2022-08-11T01:10:52.345Z,100679.19
2022-08-11T01:11:36.392Z,100681.09
2022-08-11T01:12:22.757Z,100676.72
2022-08-11T01:13:08.339Z,100677.56
2022-08-11T01:13:51.669Z,100680.00
2022-08-11T01:14:36.580Z,100675.63
2022-08-11T01:15:55.852Z,100673.72
2022-08-11T01:16:41.603Z,100671.00
2022-08-11T01:17:26.302Z,100672.91
2022-08-11T01:18:18.779Z,100675.34
2022-08-11T01:19:04.112Z,100675.34
2022-08-11T01:20:46.667Z,100675.34
2022-08-11T01:21:32.537Z,100674.53
2022-08-11T01:22:20.839Z,100675.34
2022-08-11T01:23:08.387Z,100676.16
2022-08-11T01:23:57.353Z,100687.09
2022-08-11T01:24:42.132Z,100684.38
2022-08-11T01:25:26.971Z,100678.91
2022-08-11T01:26:11.889Z,100678.91
2022-08-11T01:26:57.025Z,100681.63
2022-08-11T01:27:43.202Z,100681.63
2022-08-11T01:28:24.827Z,100680.00
2022-08-11T01:29:12.026Z,100672.91
2022-08-11T01:29:58.319Z,100674.53
2022-08-11T01:30:43.608Z,100680.00
2022-08-11T01:31:28.060Z,100679.19
2022-08-11T01:32:17.236Z,100681.09
2022-08-11T01:33:00.979Z,100679.47
2022-08-11T01:33:42.992Z,100683.28
2022-08-11T01:34:26.980Z,100680.56
2022-08-11T01:35:12.420Z,100682.19
2022-08-11T01:35:56.834Z,100678.94
2022-08-11T01:36:42.632Z,100686.03
2022-08-11T01:37:28.288Z,100684.13
2022-08-11T01:38:13.529Z,100680.56
2022-08-11T01:38:59.093Z,100677.00
2022-08-11T01:39:49.220Z,100679.75
2022-08-11T01:40:35.383Z,100676.19
2022-08-11T01:41:20.856Z,100672.66
2022-08-11T01:42:08.520Z,100672.66
2022-08-11T01:42:54.206Z,100673.75
2022-08-11T01:43:41.465Z,100671.81
2022-08-11T01:44:24.678Z,100674.56
2022-08-11T01:45:08.566Z,100674.03
2022-08-11T01:45:53.088Z,100671.28
2022-08-11T01:46:41.473Z,100674.03
2022-08-11T01:47:26.484Z,100673.22
2022-08-11T01:48:08.052Z,100676.75
2022-08-11T01:48:54.533Z,100684.94
2022-08-11T01:50:07.515Z,100678.38
2022-08-11T01:50:39.559Z,100678.38
2022-08-11T01:51:23.178Z,100680.84
2022-08-11T01:52:06.905Z,100681.94
2022-08-11T01:52:48.415Z,100677.28
2022-08-11T01:53:45.636Z,100676.47
2022-08-11T01:54:33.969Z,100681.66
2022-08-11T01:55:22.499Z,100672.66
2022-08-11T01:56:07.351Z,100677.28
2022-08-11T01:56:51.745Z,100676.19
2022-08-11T01:57:36.177Z,100680.56
2022-08-11T01:58:29.359Z,100680.84
2022-08-11T01:59:28.446Z,100677.28
2022-08-11T02:00:16.838Z,100678.94
2022-08-11T02:01:02.487Z,100681.66
2022-08-11T02:02:58.685Z,100684.41
2022-08-11T02:03:52.830Z,100685.22
2022-08-11T02:04:38.362Z,100694.50
2022-08-11T02:05:22.906Z,100687.13
2022-08-11T02:06:06.475Z,100683.56
2022-08-11T02:06:50.626Z,100690.97
2022-08-11T02:07:34.293Z,100684.66
2022-08-11T02:08:32.870Z,100681.13
2022-08-11T02:10:22.248Z,100689.59
2022-08-11T02:11:09.672Z,100684.94
2022-08-11T02:11:58.483Z,100689.59
2022-08-11T02:12:52.410Z,100678.94
2022-08-11T02:13:41.024Z,100683.59
2022-08-11T02:14:28.484Z,100688.25
2022-08-11T02:15:14.680Z,100685.50
2022-08-11T02:16:03.685Z,100683.59
2022-08-11T02:16:52.715Z,100692.06
2022-08-11T02:17:40.900Z,100681.41
2022-08-11T02:18:31.483Z,100687.69
2022-08-11T02:19:17.242Z,100681.41
2022-08-11T02:20:02.940Z,100685.25
2022-08-11T02:20:49.018Z,100686.06
2022-08-11T02:21:37.084Z,100685.78
2022-08-11T02:22:23.389Z,100681.16
2022-08-11T02:24:06.290Z,100686.31
2022-08-11T02:24:24.425Z,100685.50
2022-08-11T02:25:17.812Z,100687.44
2022-08-11T02:25:59.851Z,100681.97
2022-08-11T02:26:46.242Z,100686.31
2022-08-11T02:27:33.604Z,100683.88
2022-08-11T02:28:16.656Z,100689.06
2022-08-11T02:29:02.576Z,100687.16
2022-08-11T02:29:49.948Z,100686.88
2022-08-11T02:30:35.429Z,100690.69
2022-08-11T02:32:15.425Z,100686.88
2022-08-11T02:33:23.540Z,100684.41
2022-08-11T02:34:09.348Z,100681.69
2022-08-11T02:35:00.152Z,100687.16
2022-08-11T02:35:44.657Z,100676.22
2022-08-11T02:36:29.354Z,100678.94
2022-08-11T02:37:15.658Z,100674.59
2022-08-11T02:39:13.363Z,100670.75
2022-08-11T02:39:57.368Z,100670.75
2022-08-11T02:40:42.993Z,100667.19
2022-08-11T02:41:32.299Z,100672.94
2022-08-11T02:42:32.616Z,100673.75
2022-08-11T02:43:16.854Z,100668.31
2022-08-11T02:44:05.150Z,100668.31
2022-08-11T02:44:51.528Z,100669.13
2022-08-11T02:45:34.847Z,100670.22
2022-08-11T02:46:19.739Z,100674.59
2022-08-11T02:47:05.798Z,100673.75
2022-08-11T02:47:50.224Z,100674.59
2022-08-11T02:48:40.715Z,100674.59
2022-08-11T02:49:27.305Z,100673.75
2022-08-11T02:50:12.930Z,100672.66
2022-08-11T02:51:02.145Z,100677.31
2022-08-11T02:51:58.353Z,100672.94
2022-08-11T02:52:44.007Z,100670.22
2022-08-11T02:53:23.178Z,100672.94
2022-08-11T02:54:08.858Z,100672.13
2022-08-11T02:54:54.656Z,100672.13
2022-08-11T02:55:55.582Z,100672.13
2022-08-11T02:56:41.480Z,100675.69
2022-08-11T02:57:29.861Z,100668.59
2022-08-11T02:58:16.226Z,100668.59
2022-08-11T02:59:01.599Z,100671.31
2022-08-11T03:00:43.984Z,100678.69
2022-08-11T03:01:29.393Z,100677.88
2022-08-11T03:02:17.655Z,100676.25
2022-08-11T03:03:01.999Z,100683.63
2022-08-11T03:03:49.887Z,100681.16
2022-08-11T03:04:37.796Z,100681.69
2022-08-11T03:05:22.030Z,100685.53
2022-08-11T03:06:18.357Z,100681.16
2022-08-11T03:07:06.035Z,100680.34
2022-08-11T03:08:08.102Z,100672.44
2022-08-11T03:09:20.718Z,100674.06
2022-08-11T03:10:06.885Z,100686.91
2022-08-11T03:10:53.867Z,100681.44
2022-08-11T03:11:39.503Z,100683.34
2022-08-11T03:12:25.863Z,100679.53
2022-08-11T03:13:15.693Z,100681.72
2022-08-11T03:14:03.930Z,100683.34
2022-08-11T03:14:47.532Z,100683.63
2022-08-11T03:15:32.040Z,100680.91
2022-08-11T03:16:17.209Z,100680.91
2022-08-11T03:17:04.787Z,100686.38
2022-08-11T03:17:49.368Z,100682.81
2022-08-11T03:18:34.515Z,100680.63
2022-08-11T03:19:17.990Z,100681.72
2022-08-11T03:20:03.282Z,100683.63
2022-08-11T03:21:06.719Z,100681.19
2022-08-11T03:22:02.985Z,100683.91
2022-08-11T03:22:50.018Z,100686.66
2022-08-11T03:23:41.536Z,100686.94
2022-08-11T03:24:44.255Z,100682.28
2022-08-11T03:25:29.548Z,100681.19
2022-08-11T03:26:14.061Z,100687.75
2022-08-11T03:26:59.831Z,100680.38
2022-08-11T03:27:48.261Z,100679.53
2022-08-11T03:28:37.386Z,100682.56
2022-08-11T03:29:25.429Z,100674.38
2022-08-11T03:30:41.207Z,100677.91
2022-08-11T03:31:28.314Z,100681.47
2022-08-11T03:32:18.240Z,100683.38
2022-08-11T03:33:20.757Z,100681.47
2022-08-11T03:34:07.804Z,100679.00
2022-08-11T03:34:51.295Z,100679.81
2022-08-11T03:35:39.749Z,100676.00
2022-08-11T03:37:45.303Z,100689.94
2022-08-11T03:38:32.223Z,100674.59
2022-08-11T03:39:24.015Z,100684.47
2022-08-11T03:40:11.868Z,100678.19
2022-08-11T03:40:58.047Z,100684.47
2022-08-11T03:42:02.241Z,100683.66
2022-08-11T03:42:48.470Z,100688.28
2022-08-11T03:43:36.669Z,100687.44
2022-08-11T03:44:47.070Z,100683.91
2022-08-11T03:45:37.433Z,100688.28
2022-08-11T03:46:23.484Z,100683.91
2022-08-11T03:47:08.783Z,100686.63
2022-08-11T03:48:48.527Z,100685.00
2022-08-11T03:49:34.015Z,100682.25
2022-08-11T03:50:35.268Z,100687.72
2022-08-11T03:51:21.625Z,100689.63
2022-08-11T03:52:07.534Z,100679.00
2022-08-11T03:53:56.399Z,100680.63
2022-08-11T03:55:51.284Z,100679.00
2022-08-11T03:56:36.438Z,100674.34
2022-08-11T03:57:21.685Z,100680.09
2022-08-11T03:59:03.264Z,100675.44
2022-08-11T03:59:49.028Z,100677.34
2022-08-11T04:00:36.491Z,100679.28
2022-08-11T04:01:25.127Z,100680.09
2022-08-11T04:02:40.680Z,100680.91
2022-08-11T04:03:35.449Z,100679.28
2022-08-11T04:04:32.990Z,100680.09
2022-08-11T04:06:16.002Z,100674.91
2022-08-11T04:07:01.991Z,100678.44
2022-08-11T04:07:50.018Z,100674.91
2022-08-11T04:08:38.925Z,100677.63
2022-08-11T04:09:27.210Z,100674.91
2022-08-11T04:10:13.133Z,100680.38
2022-08-11T04:10:59.278Z,100686.66
2022-08-11T04:11:44.706Z,100679.53
2022-08-11T04:12:36.547Z,100676.00
2022-08-11T04:13:20.917Z,100679.81
2022-08-11T04:14:09.904Z,100677.91
2022-08-11T04:14:57.500Z,100681.47
2022-08-11T04:15:48.236Z,100668.91
2022-08-11T04:17:44.468Z,100677.91
2022-08-11T04:18:31.588Z,100672.44
2022-08-11T04:19:18.737Z,100677.91
2022-08-11T04:20:04.204Z,100672.44
2022-08-11T04:20:46.633Z,100671.34
2022-08-11T04:21:31.465Z,100676.81
2022-08-11T04:22:20.043Z,100672.44
2022-08-11T04:23:03.815Z,100679.00
2022-08-11T04:24:13.230Z,100672.44
2022-08-11T04:25:55.880Z,100676.28
2022-08-11T04:26:39.771Z,100679.00
2022-08-11T04:27:24.084Z,100675.19
2022-08-11T04:28:28.829Z,100676.81
2022-08-11T04:29:17.450Z,100673.00
2022-08-11T04:30:05.630Z,100670.25
2022-08-11T04:30:52.228Z,100685.56
2022-08-11T04:31:51.643Z,100676.53
2022-08-11T04:32:35.774Z,100674.63
2022-08-11T04:33:27.482Z,100680.91
2022-08-11T04:34:18.453Z,100684.44
2022-08-11T04:35:08.030Z,100682.81
2022-08-11T04:35:51.911Z,100687.19
2022-08-11T04:36:37.318Z,100682.53
2022-08-11T04:37:22.695Z,100679.81
2022-08-11T04:38:09.790Z,100677.06
2022-08-11T04:38:54.085Z,100681.72
2022-08-11T04:40:30.737Z,100685.56
2022-08-11T04:41:15.065Z,100679.28
2022-08-11T04:41:57.896Z,100675.72
2022-08-11T04:42:46.732Z,100680.38
2022-08-11T04:43:28.275Z,100680.38
2022-08-11T04:45:35.396Z,100681.47
2022-08-11T04:46:25.008Z,100685.81
2022-08-11T04:47:11.634Z,100683.38
2022-08-11T04:48:03.930Z,100677.91
2022-08-11T04:48:48.723Z,100681.47
2022-08-11T04:49:35.037Z,100682.56
2022-08-11T04:50:21.144Z,100685.28
2022-08-11T04:51:16.532Z,100686.09
2022-08-11T04:52:01.323Z,100688.03
2022-08-11T04:53:26.629Z,100682.56
2022-08-11T04:54:13.114Z,100686.38
2022-08-11T04:55:01.597Z,100688.28
2022-08-11T04:55:45.884Z,100684.47
2022-08-11T04:56:39.100Z,100678.19
2022-08-11T04:57:24.749Z,100683.38
2022-08-11T04:58:07.082Z,100679.81
2022-08-11T04:58:52.190Z,100681.75
2022-08-11T04:59:41.891Z,100678.19
2022-08-11T05:00:28.107Z,100683.38
2022-08-11T05:01:14.675Z,100682.56
2022-08-11T05:02:02.802Z,100689.94
2022-08-11T05:03:27.291Z,100688.28
2022-08-11T05:04:29.948Z,100686.66
2022-08-11T05:05:56.667Z,100686.66
2022-08-11T05:06:38.943Z,100682.28
2022-08-11T05:07:23.575Z,100682.28
2022-08-11T05:08:07.712Z,100685.03
2022-08-11T05:08:52.111Z,100683.13
2022-08-11T05:09:41.249Z,100679.56
2022-08-11T05:10:22.756Z,100688.84
2022-08-11T05:11:07.742Z,100677.94
2022-08-11T05:12:02.179Z,100689.66
2022-08-11T05:13:27.109Z,100681.75
2022-08-11T05:14:14.295Z,100679.03
2022-08-11T05:14:59.709Z,100685.03
2022-08-11T05:15:44.690Z,100682.56
2022-08-11T05:16:29.056Z,100690.50
2022-08-11T05:17:19.455Z,100690.50
2022-08-11T05:18:06.502Z,100687.75
2022-08-11T05:19:18.079Z,100685.84
2022-08-11T05:20:30.439Z,100685.03
2022-08-11T05:21:18.623Z,100683.38
2022-08-11T05:22:05.917Z,100685.03
2022-08-11T05:23:26.975Z,100679.56
2022-08-11T05:24:13.978Z,100683.94
2022-08-11T05:24:57.513Z,100683.66
2022-08-11T05:26:43.342Z,100679.81
2022-08-11T05:26:47.541Z,100689.13
2022-08-11T05:27:32.659Z,100688.03
2022-08-11T05:28:19.627Z,100690.75
2022-08-11T05:29:20.026Z,100687.75
2022-08-11T05:30:04.170Z,100689.38
2022-08-11T05:30:53.739Z,100685.81
2022-08-11T05:31:39.176Z,100697.56
2022-08-11T05:32:23.697Z,100688.56
2022-08-11T05:33:07.626Z,100687.47
2022-08-11T05:33:56.247Z,100689.09
2022-08-11T05:34:45.204Z,100691.84
2022-08-11T05:36:01.223Z,100695.38
2022-08-11T05:36:40.026Z,100698.94
2022-08-11T05:37:27.407Z,100695.09
2022-08-11T05:38:11.884Z,100695.38
2022-08-11T05:39:01.196Z,100688.81
2022-08-11T05:39:47.784Z,100693.47
2022-08-11T05:40:33.545Z,100697.00
2022-08-11T05:41:17.780Z,100694.28
2022-08-11T05:42:02.720Z,100693.47
2022-08-11T05:43:26.525Z,100697.84
2022-08-11T05:44:21.031Z,100704.13
2022-08-11T05:45:15.331Z,100699.75
2022-08-11T05:46:03.490Z,100694.00
2022-08-11T05:46:47.594Z,100697.84
2022-08-11T05:47:33.734Z,100697.56
2022-08-11T05:48:19.704Z,100703.03
2022-08-11T05:49:03.317Z,100701.09
2022-08-11T05:49:48.399Z,100697.56
2022-08-11T05:50:31.471Z,100703.03
2022-08-11T05:52:32.061Z,100697.56
2022-08-11T05:53:22.045Z,100697.56
2022-08-11T05:54:10.033Z,100703.03
2022-08-11T05:55:11.082Z,100701.91
2022-08-11T05:56:03.165Z,100700.56
2022-08-11T05:56:47.695Z,100698.66
2022-08-11T05:57:49.408Z,100700.28
2022-08-11T05:58:39.740Z,100700.28
2022-08-11T05:59:25.677Z,100704.13
2022-08-11T06:00:10.858Z,100698.38
2022-08-11T06:00:52.074Z,100701.91
2022-08-11T06:01:38.201Z,100703.84
2022-08-11T06:02:21.834Z,100701.91
2022-08-11T06:03:07.910Z,100707.38
2022-08-11T06:03:56.695Z,100701.91
2022-08-11T06:04:43.613Z,100696.47
2022-08-11T06:05:28.028Z,100698.13
2022-08-11T06:06:10.716Z,100708.78
2022-08-11T06:06:58.145Z,100700.03
2022-08-11T06:07:49.092Z,100699.75
2022-08-11T06:08:34.262Z,100695.41
2022-08-11T06:09:19.468Z,100695.41
2022-08-11T06:10:04.882Z,100694.31
2022-08-11T06:10:52.189Z,100697.84
2022-08-11T06:11:44.052Z,100693.47
2022-08-11T06:12:29.373Z,100697.56
2022-08-11T06:13:17.519Z,100690.47
2022-08-11T06:14:04.343Z,100695.94
2022-08-11T06:14:53.646Z,100695.66
2022-08-11T06:15:41.404Z,100691.28
2022-08-11T06:16:24.954Z,100694.84
2022-08-11T06:17:23.569Z,100688.28
2022-08-11T06:18:08.691Z,100694.56
2022-08-11T06:19:40.675Z,100702.75
2022-08-11T06:20:26.802Z,100695.66
2022-08-11T06:21:11.278Z,100690.47
2022-08-11T06:22:09.347Z,100694.84
2022-08-11T06:22:55.019Z,100699.50
2022-08-11T06:23:42.010Z,100689.38
2022-08-11T06:24:42.377Z,100691.28
2022-08-11T06:25:29.005Z,100695.94
2022-08-11T06:26:17.408Z,100693.22
2022-08-11T06:27:13.449Z,100692.38
2022-08-11T06:27:57.418Z,100692.38
2022-08-11T06:28:46.847Z,100694.31
2022-08-11T06:30:10.163Z,100693.22
2022-08-11T06:30:59.904Z,100693.22
2022-08-11T06:31:55.637Z,100697.03
2022-08-11T06:32:41.495Z,100695.13
2022-08-11T06:33:33.467Z,100693.22
2022-08-11T06:34:29.060Z,100689.66
2022-08-11T06:35:21.529Z,100691.56
2022-08-11T06:36:35.076Z,100696.22
2022-08-11T06:37:45.078Z,100693.47
2022-08-11T06:38:31.808Z,100694.31
2022-08-11T06:39:19.908Z,100686.09
2022-08-11T06:40:05.593Z,100690.75
2022-08-11T06:40:49.844Z,100687.19
2022-08-11T06:41:34.955Z,100685.00
2022-08-11T06:42:17.556Z,100691.56
2022-08-11T06:43:03.960Z,100689.66
2022-08-11T06:43:55.831Z,100686.09
2022-08-11T06:44:39.072Z,100684.19
2022-08-11T06:45:22.718Z,100679.81
2022-08-11T06:46:11.889Z,100686.09
2022-08-11T06:47:10.189Z,100678.72
2022-08-11T06:47:51.295Z,100683.09
2022-08-11T06:48:39.583Z,100681.47
2022-08-11T06:49:31.264Z,100684.19
2022-08-11T06:50:16.899Z,100684.19
2022-08-11T06:51:14.273Z,100682.56
2022-08-11T06:52:04.464Z,100681.47
2022-08-11T06:52:49.815Z,100683.09
2022-08-11T06:53:34.943Z,100681.47
2022-08-11T06:54:50.766Z,100682.28
2022-08-11T06:55:56.175Z,100688.56
2022-08-11T06:56:40.985Z,100680.66
2022-08-11T06:57:29.922Z,100680.38
2022-08-11T06:58:12.063Z,100681.47
2022-08-11T06:58:58.842Z,100682.28
2022-08-11T06:59:44.801Z,100682.28
2022-08-11T07:00:35.475Z,100673.25
2022-08-11T07:01:26.045Z,100677.63
2022-08-11T07:02:12.159Z,100677.63
2022-08-11T07:03:00.632Z,100683.91
2022-08-11T07:03:53.313Z,100678.44
2022-08-11T07:04:39.726Z,100683.91
2022-08-11T07:05:28.637Z,100682.81
2022-08-11T07:06:19.417Z,100678.44
2022-08-11T07:07:20.989Z,100683.91
2022-08-11T07:08:34.198Z,100691.00
2022-08-11T07:09:08.436Z,100683.91
2022-08-11T07:09:55.425Z,100681.19
2022-08-11T07:10:46.080Z,100678.44
2022-08-11T07:11:32.042Z,100683.91
2022-08-11T07:12:17.551Z,100680.38
2022-08-11T07:13:01.680Z,100683.91
2022-08-11T07:13:48.001Z,100675.72
2022-08-11T07:14:29.564Z,100674.63
2022-08-11T07:15:14.823Z,100678.44
2022-08-11T07:17:15.590Z,100685.56
2022-08-11T07:18:04.716Z,100680.09
2022-08-11T07:18:50.828Z,100674.63
2022-08-11T07:19:41.519Z,100679.00
2022-08-11T07:22:02.346Z,100680.91
2022-08-11T07:22:48.388Z,100676.25
2022-08-11T07:23:27.450Z,100682.53
2022-08-11T07:24:20.031Z,100680.63
2022-08-11T07:25:16.071Z,100679.81
2022-08-11T07:26:01.617Z,100677.91
2022-08-11T07:26:51.706Z,100677.91
2022-08-11T07:27:39.149Z,100677.91
2022-08-11T07:28:26.416Z,100676.78
2022-08-11T07:29:30.326Z,100674.88
2022-08-11T07:30:17.061Z,100677.63
2022-08-11T07:31:07.801Z,100670.50
2022-08-11T07:32:31.445Z,100677.63
2022-08-11T07:34:08.200Z,100675.69
2022-08-11T07:35:28.175Z,100672.16
2022-08-11T07:36:15.613Z,100665.59
2022-08-11T07:37:04.069Z,100672.97
2022-08-11T07:37:51.063Z,100675.69
2022-08-11T07:38:41.523Z,100675.69
2022-08-11T07:39:29.132Z,100669.13
2022-08-11T07:40:16.237Z,100675.41
2022-08-11T07:41:35.645Z,100677.34
2022-08-11T07:42:25.056Z,100669.13
2022-08-11T07:43:25.375Z,100666.41
2022-08-11T07:44:11.066Z,100667.22
2022-08-11T07:44:56.246Z,100666.41
2022-08-11T07:45:46.515Z,100665.31
2022-08-11T07:46:33.231Z,100674.59
2022-08-11T07:47:21.274Z,100666.41
2022-08-11T07:48:10.874Z,100665.59
2022-08-11T07:48:57.668Z,100662.56
2022-08-11T07:49:42.881Z,100668.84
2022-08-11T07:50:31.421Z,100664.50
2022-08-11T07:52:03.744Z,100668.03
2022-08-11T07:53:26.581Z,100668.03
2022-08-11T07:54:16.932Z,100666.94
2022-08-11T07:55:00.513Z,100665.84
2022-08-11T07:55:53.434Z,100659.84
2022-08-11T07:56:54.888Z,100668.03
2022-08-11T07:58:14.498Z,100659.84
2022-08-11T07:58:52.432Z,100661.75
2022-08-11T08:00:00.117Z,100666.13
2022-08-11T08:00:36.711Z,100676.25
2022-08-11T08:01:22.778Z,100670.78
2022-08-11T08:02:10.894Z,100666.94
2022-08-11T08:02:55.797Z,100666.13
2022-08-11T08:03:53.865Z,100666.13
2022-08-11T08:04:50.780Z,100670.78
2022-08-11T08:05:37.249Z,100665.31
2022-08-11T08:06:35.575Z,100661.47
2022-08-11T08:07:21.891Z,100669.69
2022-08-11T08:08:08.293Z,100669.69
2022-08-11T08:08:55.968Z,100668.59
2022-08-11T08:09:40.286Z,100668.84
2022-08-11T08:10:26.439Z,100671.31
2022-08-11T08:11:14.422Z,100665.84
2022-08-11T08:12:06.713Z,100669.41
2022-08-11T08:12:53.192Z,100668.59
2022-08-11T08:13:38.046Z,100661.47
2022-08-11T08:14:26.390Z,100665.03
2022-08-11T08:15:12.104Z,100662.03
2022-08-11T08:15:59.705Z,100659.56
2022-08-11T08:16:44.663Z,100665.03
2022-08-11T08:17:29.707Z,100664.22
2022-08-11T08:18:25.983Z,100668.59
2022-08-11T08:19:10.623Z,100671.31
2022-08-11T08:20:00.868Z,100664.75
2022-08-11T08:20:46.670Z,100669.41
2022-08-11T08:21:39.034Z,100669.41
2022-08-11T08:22:37.722Z,100671.31
2022-08-11T08:23:33.277Z,100667.75
2022-08-11T08:24:42.369Z,100666.66
2022-08-11T08:25:25.305Z,100666.94
2022-08-11T08:26:16.649Z,100672.94
2022-08-11T08:27:00.036Z,100674.03
2022-08-11T08:27:47.657Z,100677.06
2022-08-11T08:29:27.230Z,100669.41
2022-08-11T08:30:10.095Z,100672.13
2022-08-11T08:30:56.340Z,100673.22
2022-08-11T08:31:46.909Z,100667.75
2022-08-11T08:32:35.874Z,100666.66
2022-08-11T08:33:19.501Z,100661.19
2022-08-11T08:34:04.910Z,100665.84
2022-08-11T08:34:50.961Z,100671.31
2022-08-11T08:35:33.271Z,100667.47
2022-08-11T08:36:17.994Z,100672.13
2022-08-11T08:37:46.220Z,100672.94
2022-08-11T08:38:06.189Z,100662.03
2022-08-11T08:38:50.962Z,100666.66
2022-08-11T08:39:36.002Z,100663.13
2022-08-11T08:42:35.018Z,100663.94
2022-08-11T08:43:24.002Z,100662.03
2022-08-11T08:44:35.189Z,100658.47
2022-08-11T08:45:12.696Z,100659.28
2022-08-11T08:45:59.015Z,100663.66
2022-08-11T08:46:44.639Z,100661.19
2022-08-11T08:47:42.619Z,100661.19
2022-08-11T08:48:26.992Z,100664.75
2022-08-11T08:49:13.898Z,100664.75
2022-08-11T08:50:01.446Z,100663.66
2022-08-11T08:50:46.813Z,100657.38
2022-08-11T08:51:58.648Z,100663.66
2022-08-11T08:52:37.188Z,100662.84
2022-08-11T08:53:25.347Z,100662.84
2022-08-11T08:54:14.970Z,100664.75
2022-08-11T08:55:02.552Z,100666.38
2022-08-11T08:55:45.692Z,100666.38
2022-08-11T08:56:32.274Z,100664.75
2022-08-11T08:57:26.652Z,100660.91
2022-08-11T08:58:12.925Z,100662.84
2022-08-11T08:58:59.064Z,100662.84
2022-08-11T08:59:48.405Z,100662.03
2022-08-11T09:00:29.907Z,100665.56
2022-08-11T09:02:34.592Z,100663.66
2022-08-11T09:03:40.956Z,100660.09
2022-08-11T09:04:24.254Z,100658.19
2022-08-11T09:05:12.511Z,100663.66
2022-08-11T09:05:57.355Z,100656.56
2022-08-11T09:06:43.117Z,100663.66
2022-08-11T09:07:38.855Z,100651.91
2022-08-11T09:08:25.087Z,100655.47
2022-08-11T09:09:14.986Z,100659.81
2022-08-11T09:10:02.534Z,100658.19
2022-08-11T09:10:48.482Z,100658.19
2022-08-11T09:11:34.391Z,100654.63
2022-08-11T09:12:38.141Z,100657.38
2022-08-11T09:13:23.451Z,100658.19
2022-08-11T09:14:14.335Z,100658.19
2022-08-11T09:14:59.555Z,100659.81
2022-08-11T09:15:41.253Z,100654.63
2022-08-11T09:16:27.237Z,100659.00
2022-08-11T09:17:14.732Z,100655.47
2022-08-11T09:18:00.172Z,100659.00
2022-08-11T09:18:44.384Z,100659.81
2022-08-11T09:19:32.426Z,100658.19
2022-08-11T09:20:17.447Z,100660.91
2022-08-11T09:21:03.227Z,100657.38
2022-08-11T09:21:48.955Z,100652.72
2022-08-11T09:22:35.263Z,100658.19
2022-08-11T09:24:06.674Z,100657.38
2022-08-11T09:24:26.522Z,100656.28
2022-08-11T09:25:15.062Z,100651.63
2022-08-11T09:26:13.809Z,100647.25
2022-08-11T09:26:58.755Z,100652.72
2022-08-11T09:27:50.437Z,100650.81
2022-08-11T09:28:35.597Z,100648.91
2022-08-11T09:29:23.166Z,100652.72
2022-08-11T09:30:21.438Z,100644.53
2022-08-11T09:31:09.595Z,100655.47
2022-08-11T09:31:59.269Z,100654.34
2022-08-11T09:32:46.843Z,100651.91
2022-08-11T09:33:34.232Z,100651.09
2022-08-11T09:34:22.033Z,100650.00
2022-08-11T09:35:08.956Z,100655.47
2022-08-11T09:35:57.328Z,100652.72
2022-08-11T09:36:43.585Z,100654.34
2022-08-11T09:37:53.653Z,100653.53
2022-08-11T09:39:42.559Z,100648.91
2022-08-11T09:40:27.530Z,100654.34
2022-08-11T09:41:13.126Z,100648.91
2022-08-11T09:42:02.992Z,100639.88
2022-08-11T09:42:47.543Z,100646.16
2022-08-11T09:43:32.500Z,100648.91
2022-08-11T09:44:42.491Z,100643.44
2022-08-11T09:45:28.102Z,100647.25
2022-08-11T09:46:22.152Z,100651.63
2022-08-11T09:47:08.599Z,100647.25
2022-08-11T09:47:56.454Z,100648.06
2022-08-11T09:48:40.958Z,100647.25
2022-08-11T09:49:25.831Z,100651.63
2022-08-11T09:50:14.411Z,100648.91
2022-08-11T09:50:56.859Z,100643.44
2022-08-11T09:51:42.058Z,100645.88
2022-08-11T09:53:09.970Z,100644.25
2022-08-11T09:54:03.502Z,100638.78
2022-08-11T09:54:48.446Z,100633.31
2022-08-11T09:55:34.352Z,100633.31
2022-08-11T09:56:16.463Z,100627.03